METAR Data
IDs: Format: Raw Decoded Include TAF

Data at: 1601 UTC 18 Feb 2019

METAR for:KEBS (Webster City Muni, IA, US)
Text:KEBS 181535Z AUTO 33009KT 10SM CLR M16/M18 A3041 RMK AO2
Temperature:-16.0°C ( 3°F)
Dewpoint:-18.0°C ( -0°F) [RH = 85%]
Pressure (altimeter):30.41 inches Hg (1029.9 mb)
Winds:from the NNW (330 degrees) at 10 MPH (9 knots; 4.6 m/s)
Visibility:10 or more sm (16+ km)
Ceiling:at least 12,000 feet AGL
Clouds:sky clear below 12,000 feet AGL
QC Flag:automated observation with no human augmentation